sensor_id;sensor_type;location;lat;lon;timestamp;temperature;humidity
12704;DHT22;6416;52.182;7.650;2022-08-03T00:01:45;24.30;52.80
12704;DHT22;6416;52.182;7.650;2022-08-03T00:04:11;24.20;52.90
12704;DHT22;6416;52.182;7.650;2022-08-03T00:06:37;24.20;53.00
12704;DHT22;6416;52.182;7.650;2022-08-03T00:09:07;24.10;53.10
12704;DHT22;6416;52.182;7.650;2022-08-03T00:11:33;24.10;53.60
12704;DHT22;6416;52.182;7.650;2022-08-03T00:14:03;24.00;53.10
12704;DHT22;6416;52.182;7.650;2022-08-03T00:16:29;24.00;53.70
12704;DHT22;6416;52.182;7.650;2022-08-03T00:18:54;24.00;53.20
12704;DHT22;6416;52.182;7.650;2022-08-03T00:21:19;23.90;53.40
12704;DHT22;6416;52.182;7.650;2022-08-03T00:23:45;23.90;53.40
12704;DHT22;6416;52.182;7.650;2022-08-03T00:26:11;23.90;53.50
12704;DHT22;6416;52.182;7.650;2022-08-03T00:28:36;23.80;53.50
12704;DHT22;6416;52.182;7.650;2022-08-03T00:31:01;23.80;53.60
12704;DHT22;6416;52.182;7.650;2022-08-03T00:33:27;23.70;53.70
12704;DHT22;6416;52.182;7.650;2022-08-03T00:35:52;23.70;53.70
12704;DHT22;6416;52.182;7.650;2022-08-03T00:38:19;23.70;53.70
12704;DHT22;6416;52.182;7.650;2022-08-03T00:40:45;23.60;53.70
12704;DHT22;6416;52.182;7.650;2022-08-03T00:43:11;23.60;53.90
12704;DHT22;6416;52.182;7.650;2022-08-03T00:45:38;23.60;54.10
12704;DHT22;6416;52.182;7.650;2022-08-03T00:48:05;23.50;54.10
12704;DHT22;6416;52.182;7.650;2022-08-03T00:50:34;23.50;54.30
12704;DHT22;6416;52.182;7.650;2022-08-03T00:53:01;23.50;54.50
12704;DHT22;6416;52.182;7.650;2022-08-03T00:55:27;23.50;54.40
12704;DHT22;6416;52.182;7.650;2022-08-03T00:57:53;23.40;54.30
12704;DHT22;6416;52.182;7.650;2022-08-03T01:00:22;23.40;54.50
12704;DHT22;6416;52.182;7.650;2022-08-03T01:02:47;23.30;54.50
12704;DHT22;6416;52.182;7.650;2022-08-03T01:05:13;23.30;54.40
12704;DHT22;6416;52.182;7.650;2022-08-03T01:16:17;23.20;55.40
12704;DHT22;6416;52.182;7.650;2022-08-03T01:19:00;23.30;56.00
12704;DHT22;6416;52.182;7.650;2022-08-03T01:21:31;23.20;54.80
12704;DHT22;6416;52.182;7.650;2022-08-03T01:26:51;23.20;55.60
12704;DHT22;6416;52.182;7.650;2022-08-03T01:29:39;23.10;55.80
12704;DHT22;6416;52.182;7.650;2022-08-03T01:32:11;23.10;56.10
12704;DHT22;6416;52.182;7.650;2022-08-03T01:34:44;23.00;55.50
12704;DHT22;6416;52.182;7.650;2022-08-03T01:37:11;23.00;55.50
12704;DHT22;6416;52.182;7.650;2022-08-03T01:39:41;23.00;55.20
12704;DHT22;6416;52.182;7.650;2022-08-03T01:42:09;22.90;55.50
12704;DHT22;6416;52.182;7.650;2022-08-03T01:44:39;22.90;55.70
12704;DHT22;6416;52.182;7.650;2022-08-03T01:47:06;22.90;55.80
12704;DHT22;6416;52.182;7.650;2022-08-03T01:49:39;22.90;55.70
12704;DHT22;6416;52.182;7.650;2022-08-03T01:52:08;22.80;55.90
12704;DHT22;6416;52.182;7.650;2022-08-03T01:54:50;22.80;55.80
12704;DHT22;6416;52.182;7.650;2022-08-03T01:57:16;22.80;56.00
12704;DHT22;6416;52.182;7.650;2022-08-03T01:59:45;22.80;55.80
12704;DHT22;6416;52.182;7.650;2022-08-03T02:02:11;22.80;56.00
12704;DHT22;6416;52.182;7.650;2022-08-03T02:04:40;22.70;55.90
12704;DHT22;6416;52.182;7.650;2022-08-03T02:07:08;22.70;56.20
12704;DHT22;6416;52.182;7.650;2022-08-03T02:09:36;22.70;56.20
12704;DHT22;6416;52.182;7.650;2022-08-03T02:12:05;22.70;56.30
12704;DHT22;6416;52.182;7.650;2022-08-03T02:14:31;22.60;56.30
12704;DHT22;6416;52.182;7.650;2022-08-03T02:16:58;22.60;56.40
12704;DHT22;6416;52.182;7.650;2022-08-03T02:19:25;22.60;56.40
12704;DHT22;6416;52.182;7.650;2022-08-03T02:21:52;22.60;56.60
12704;DHT22;6416;52.182;7.650;2022-08-03T02:24:18;22.50;56.50
12704;DHT22;6416;52.182;7.650;2022-08-03T02:26:44;22.50;56.50
12704;DHT22;6416;52.182;7.650;2022-08-03T02:29:15;22.50;56.60
12704;DHT22;6416;52.182;7.650;2022-08-03T02:31:44;22.50;57.00
12704;DHT22;6416;52.182;7.650;2022-08-03T02:34:12;22.40;56.70
12704;DHT22;6416;52.182;7.650;2022-08-03T02:36:39;22.40;56.80
12704;DHT22;6416;52.182;7.650;2022-08-03T02:39:09;22.40;56.80
12704;DHT22;6416;52.182;7.650;2022-08-03T02:41:50;22.30;57.00
12704;DHT22;6416;52.182;7.650;2022-08-03T02:44:19;22.30;57.50
12704;DHT22;6416;52.182;7.650;2022-08-03T02:46:47;22.30;56.90
12704;DHT22;6416;52.182;7.650;2022-08-03T02:49:15;22.30;57.00
12704;DHT22;6416;52.182;7.650;2022-08-03T02:51:41;22.20;57.10
12704;DHT22;6416;52.182;7.650;2022-08-03T02:54:08;22.20;57.10
12704;DHT22;6416;52.182;7.650;2022-08-03T02:56:35;22.20;57.20
12704;DHT22;6416;52.182;7.650;2022-08-03T02:59:02;22.20;57.30
12704;DHT22;6416;52.182;7.650;2022-08-03T03:01:29;22.10;57.20
12704;DHT22;6416;52.182;7.650;2022-08-03T03:03:56;22.10;57.40
12704;DHT22;6416;52.182;7.650;2022-08-03T03:06:24;22.10;57.50
12704;DHT22;6416;52.182;7.650;2022-08-03T03:08:50;22.10;57.70
12704;DHT22;6416;52.182;7.650;2022-08-03T03:11:18;22.10;57.80
12704;DHT22;6416;52.182;7.650;2022-08-03T03:13:45;22.00;57.70
12704;DHT22;6416;52.182;7.650;2022-08-03T03:16:12;22.00;57.80
12704;DHT22;6416;52.182;7.650;2022-08-03T03:18:38;22.00;57.90
12704;DHT22;6416;52.182;7.650;2022-08-03T03:21:06;22.00;57.90
12704;DHT22;6416;52.182;7.650;2022-08-03T03:23:36;22.00;58.10
12704;DHT22;6416;52.182;7.650;2022-08-03T03:26:02;21.90;58.20
12704;DHT22;6416;52.182;7.650;2022-08-03T03:28:30;21.90;58.10
12704;DHT22;6416;52.182;7.650;2022-08-03T03:30:56;21.90;58.30
12704;DHT22;6416;52.182;7.650;2022-08-03T03:33:22;21.90;58.30
12704;DHT22;6416;52.182;7.650;2022-08-03T03:35:49;21.90;58.40
12704;DHT22;6416;52.182;7.650;2022-08-03T03:38:15;21.90;58.40
12704;DHT22;6416;52.182;7.650;2022-08-03T03:40:40;21.80;58.40
12704;DHT22;6416;52.182;7.650;2022-08-03T03:43:08;21.80;58.50
12704;DHT22;6416;52.182;7.650;2022-08-03T03:45:34;21.80;58.60
12704;DHT22;6416;52.182;7.650;2022-08-03T03:48:03;21.80;58.70
12704;DHT22;6416;52.182;7.650;2022-08-03T03:50:31;21.80;59.10
12704;DHT22;6416;52.182;7.650;2022-08-03T03:52:57;21.70;58.80
12704;DHT22;6416;52.182;7.650;2022-08-03T03:55:23;21.70;58.70
12704;DHT22;6416;52.182;7.650;2022-08-03T03:57:48;21.70;58.80
12704;DHT22;6416;52.182;7.650;2022-08-03T04:00:15;21.70;58.80
12704;DHT22;6416;52.182;7.650;2022-08-03T04:02:41;21.70;58.80
12704;DHT22;6416;52.182;7.650;2022-08-03T04:05:07;21.60;58.80
12704;DHT22;6416;52.182;7.650;2022-08-03T04:08:00;21.60;58.90
12704;DHT22;6416;52.182;7.650;2022-08-03T04:10:27;21.60;59.50
12704;DHT22;6416;52.182;7.650;2022-08-03T04:12:55;21.50;59.20
12704;DHT22;6416;52.182;7.650;2022-08-03T04:15:23;21.50;59.20
12704;DHT22;6416;52.182;7.650;2022-08-03T04:17:52;21.50;59.30
12704;DHT22;6416;52.182;7.650;2022-08-03T04:20:23;21.50;59.60
12704;DHT22;6416;52.182;7.650;2022-08-03T04:22:52;21.40;59.80
12704;DHT22;6416;52.182;7.650;2022-08-03T04:25:20;21.40;59.50
12704;DHT22;6416;52.182;7.650;2022-08-03T04:27:49;21.40;59.70
12704;DHT22;6416;52.182;7.650;2022-08-03T04:30:15;21.40;59.70
12704;DHT22;6416;52.182;7.650;2022-08-03T04:32:42;21.40;59.80
12704;DHT22;6416;52.182;7.650;2022-08-03T04:35:07;21.30;59.90
12704;DHT22;6416;52.182;7.650;2022-08-03T04:37:42;21.40;60.00
12704;DHT22;6416;52.182;7.650;2022-08-03T04:40:23;21.40;60.90
12704;DHT22;6416;52.182;7.650;2022-08-03T04:42:49;21.40;60.30
12704;DHT22;6416;52.182;7.650;2022-08-03T04:45:18;21.40;60.20
12704;DHT22;6416;52.182;7.650;2022-08-03T04:47:45;21.40;60.40
12704;DHT22;6416;52.182;7.650;2022-08-03T04:50:11;21.50;60.80
12704;DHT22;6416;52.182;7.650;2022-08-03T04:52:38;21.50;60.90
12704;DHT22;6416;52.182;7.650;2022-08-03T04:55:03;21.60;61.20
12704;DHT22;6416;52.182;7.650;2022-08-03T04:57:29;21.70;61.20
12704;DHT22;6416;52.182;7.650;2022-08-03T04:59:54;21.90;61.40
12704;DHT22;6416;52.182;7.650;2022-08-03T05:02:20;22.10;61.60
12704;DHT22;6416;52.182;7.650;2022-08-03T05:04:46;22.20;61.30
12704;DHT22;6416;52.182;7.650;2022-08-03T05:07:12;22.40;61.30
12704;DHT22;6416;52.182;7.650;2022-08-03T05:09:38;22.60;61.20
12704;DHT22;6416;52.182;7.650;2022-08-03T05:12:04;22.70;61.00
12704;DHT22;6416;52.182;7.650;2022-08-03T05:14:31;22.90;61.00
12704;DHT22;6416;52.182;7.650;2022-08-03T05:16:56;23.10;60.80
12704;DHT22;6416;52.182;7.650;2022-08-03T05:19:22;23.30;60.80
12704;DHT22;6416;52.182;7.650;2022-08-03T05:21:47;23.40;60.60
12704;DHT22;6416;52.182;7.650;2022-08-03T05:24:13;23.60;60.60
12704;DHT22;6416;52.182;7.650;2022-08-03T05:26:38;23.80;60.40
12704;DHT22;6416;52.182;7.650;2022-08-03T05:29:04;24.00;60.20
12704;DHT22;6416;52.182;7.650;2022-08-03T05:31:29;24.10;60.00
12704;DHT22;6416;52.182;7.650;2022-08-03T05:33:56;24.30;60.00
12704;DHT22;6416;52.182;7.650;2022-08-03T05:36:21;24.50;60.10
12704;DHT22;6416;52.182;7.650;2022-08-03T05:38:47;24.70;60.50
12704;DHT22;6416;52.182;7.650;2022-08-03T05:41:12;24.90;60.40
12704;DHT22;6416;52.182;7.650;2022-08-03T05:43:38;25.20;60.20
12704;DHT22;6416;52.182;7.650;2022-08-03T05:46:03;25.40;59.80
12704;DHT22;6416;52.182;7.650;2022-08-03T05:48:29;25.70;59.60
12704;DHT22;6416;52.182;7.650;2022-08-03T05:50:54;26.00;59.40
12704;DHT22;6416;52.182;7.650;2022-08-03T05:53:20;26.20;59.20
12704;DHT22;6416;52.182;7.650;2022-08-03T05:55:45;26.50;59.00
12704;DHT22;6416;52.182;7.650;2022-08-03T05:58:10;26.70;58.80
12704;DHT22;6416;52.182;7.650;2022-08-03T06:00:36;27.00;58.40
12704;DHT22;6416;52.182;7.650;2022-08-03T06:03:02;27.10;58.20
12704;DHT22;6416;52.182;7.650;2022-08-03T06:05:28;27.30;57.90
12704;DHT22;6416;52.182;7.650;2022-08-03T06:07:53;27.60;57.50
12704;DHT22;6416;52.182;7.650;2022-08-03T06:10:19;27.70;57.20
12704;DHT22;6416;52.182;7.650;2022-08-03T06:12:45;27.90;57.00
12704;DHT22;6416;52.182;7.650;2022-08-03T06:15:10;28.10;56.80
12704;DHT22;6416;52.182;7.650;2022-08-03T06:17:44;28.30;56.60
12704;DHT22;6416;52.182;7.650;2022-08-03T06:20:10;28.50;56.00
12704;DHT22;6416;52.182;7.650;2022-08-03T06:22:35;28.70;56.20
12704;DHT22;6416;52.182;7.650;2022-08-03T06:25:01;29.00;55.90
12704;DHT22;6416;52.182;7.650;2022-08-03T06:27:26;29.20;55.40
12704;DHT22;6416;52.182;7.650;2022-08-03T06:29:52;29.30;54.70
12704;DHT22;6416;52.182;7.650;2022-08-03T06:32:17;29.40;54.80
12704;DHT22;6416;52.182;7.650;2022-08-03T06:34:43;29.50;54.40
12704;DHT22;6416;52.182;7.650;2022-08-03T06:37:09;29.70;54.50
12704;DHT22;6416;52.182;7.650;2022-08-03T06:39:34;29.90;54.60
12704;DHT22;6416;52.182;7.650;2022-08-03T06:42:00;30.10;54.10
12704;DHT22;6416;52.182;7.650;2022-08-03T06:44:25;30.30;53.80
12704;DHT22;6416;52.182;7.650;2022-08-03T06:46:51;30.50;53.80
12704;DHT22;6416;52.182;7.650;2022-08-03T06:49:16;30.70;53.30
12704;DHT22;6416;52.182;7.650;2022-08-03T06:51:42;30.90;52.70
12704;DHT22;6416;52.182;7.650;2022-08-03T06:54:07;31.20;52.60
12704;DHT22;6416;52.182;7.650;2022-08-03T06:56:32;31.40;52.10
12704;DHT22;6416;52.182;7.650;2022-08-03T06:58:58;31.60;51.80
12704;DHT22;6416;52.182;7.650;2022-08-03T07:01:23;31.80;50.80
12704;DHT22;6416;52.182;7.650;2022-08-03T07:03:49;32.00;50.60
12704;DHT22;6416;52.182;7.650;2022-08-03T07:06:14;32.10;50.40
12704;DHT22;6416;52.182;7.650;2022-08-03T07:08:40;32.20;50.20
12704;DHT22;6416;52.182;7.650;2022-08-03T07:11:05;32.40;49.70
12704;DHT22;6416;52.182;7.650;2022-08-03T07:13:31;32.60;49.80
12704;DHT22;6416;52.182;7.650;2022-08-03T07:15:56;32.80;49.70
12704;DHT22;6416;52.182;7.650;2022-08-03T07:18:22;33.00;49.30
12704;DHT22;6416;52.182;7.650;2022-08-03T07:20:47;33.20;49.40
12704;DHT22;6416;52.182;7.650;2022-08-03T07:23:13;33.40;49.20
12704;DHT22;6416;52.182;7.650;2022-08-03T07:25:38;33.70;48.80
12704;DHT22;6416;52.182;7.650;2022-08-03T07:28:04;34.00;48.50
12704;DHT22;6416;52.182;7.650;2022-08-03T07:30:29;34.20;47.70
12704;DHT22;6416;52.182;7.650;2022-08-03T07:32:55;34.40;47.40
12704;DHT22;6416;52.182;7.650;2022-08-03T07:35:20;34.70;47.00
12704;DHT22;6416;52.182;7.650;2022-08-03T07:37:46;34.90;46.70
12704;DHT22;6416;52.182;7.650;2022-08-03T07:40:11;35.20;47.40
12704;DHT22;6416;52.182;7.650;2022-08-03T07:42:37;35.50;46.20
12704;DHT22;6416;52.182;7.650;2022-08-03T07:45:02;35.80;46.10
12704;DHT22;6416;52.182;7.650;2022-08-03T07:47:30;36.10;45.80
12704;DHT22;6416;52.182;7.650;2022-08-03T07:49:56;36.40;45.30
12704;DHT22;6416;52.182;7.650;2022-08-03T07:52:22;36.70;44.10
12704;DHT22;6416;52.182;7.650;2022-08-03T07:54:47;36.90;43.40
12704;DHT22;6416;52.182;7.650;2022-08-03T07:57:13;37.20;43.70
12704;DHT22;6416;52.182;7.650;2022-08-03T07:59:38;37.40;43.30
12704;DHT22;6416;52.182;7.650;2022-08-03T08:02:05;37.60;43.20
12704;DHT22;6416;52.182;7.650;2022-08-03T08:04:31;38.00;42.70
12704;DHT22;6416;52.182;7.650;2022-08-03T08:06:56;38.20;42.00
12704;DHT22;6416;52.182;7.650;2022-08-03T08:09:22;38.40;41.20
12704;DHT22;6416;52.182;7.650;2022-08-03T08:11:48;38.70;41.00
12704;DHT22;6416;52.182;7.650;2022-08-03T08:14:14;38.80;39.90
12704;DHT22;6416;52.182;7.650;2022-08-03T08:16:39;38.90;39.10
12704;DHT22;6416;52.182;7.650;2022-08-03T08:19:05;39.00;39.20
12704;DHT22;6416;52.182;7.650;2022-08-03T08:21:30;39.10;38.90
12704;DHT22;6416;52.182;7.650;2022-08-03T08:23:56;39.30;38.90
12704;DHT22;6416;52.182;7.650;2022-08-03T08:26:21;39.30;38.70
12704;DHT22;6416;52.182;7.650;2022-08-03T08:28:47;39.40;38.60
12704;DHT22;6416;52.182;7.650;2022-08-03T08:31:12;39.60;38.10
12704;DHT22;6416;52.182;7.650;2022-08-03T08:33:38;39.70;37.80
12704;DHT22;6416;52.182;7.650;2022-08-03T08:36:03;39.80;36.90
12704;DHT22;6416;52.182;7.650;2022-08-03T08:38:29;39.80;36.90
12704;DHT22;6416;52.182;7.650;2022-08-03T08:40:55;39.80;37.10
12704;DHT22;6416;52.182;7.650;2022-08-03T08:43:20;40.00;37.20
12704;DHT22;6416;52.182;7.650;2022-08-03T08:45:48;40.10;37.00
12704;DHT22;6416;52.182;7.650;2022-08-03T08:48:14;40.30;36.80
12704;DHT22;6416;52.182;7.650;2022-08-03T08:50:42;40.40;36.50
12704;DHT22;6416;52.182;7.650;2022-08-03T08:53:09;40.50;36.00
12704;DHT22;6416;52.182;7.650;2022-08-03T08:55:36;40.60;36.00
12704;DHT22;6416;52.182;7.650;2022-08-03T08:58:04;40.70;36.40
12704;DHT22;6416;52.182;7.650;2022-08-03T09:00:30;41.00;35.90
12704;DHT22;6416;52.182;7.650;2022-08-03T09:02:56;41.20;35.60
12704;DHT22;6416;52.182;7.650;2022-08-03T09:05:22;41.40;34.60
12704;DHT22;6416;52.182;7.650;2022-08-03T09:07:47;41.60;34.00
12704;DHT22;6416;52.182;7.650;2022-08-03T09:10:15;41.80;34.30
12704;DHT22;6416;52.182;7.650;2022-08-03T09:12:43;42.00;34.30
12704;DHT22;6416;52.182;7.650;2022-08-03T09:17:44;42.40;32.20
12704;DHT22;6416;52.182;7.650;2022-08-03T09:20:10;42.60;33.30
12704;DHT22;6416;52.182;7.650;2022-08-03T09:23:00;42.70;32.50
12704;DHT22;6416;52.182;7.650;2022-08-03T09:25:30;42.80;32.80
12704;DHT22;6416;52.182;7.650;2022-08-03T09:28:10;43.00;31.70
12704;DHT22;6416;52.182;7.650;2022-08-03T09:30:38;43.10;30.90
12704;DHT22;6416;52.182;7.650;2022-08-03T09:33:06;43.00;31.70
12704;DHT22;6416;52.182;7.650;2022-08-03T09:35:32;43.00;30.80
12704;DHT22;6416;52.182;7.650;2022-08-03T09:38:21;43.00;30.90
12704;DHT22;6416;52.182;7.650;2022-08-03T09:40:46;43.00;31.30
12704;DHT22;6416;52.182;7.650;2022-08-03T09:43:12;43.20;31.30
12704;DHT22;6416;52.182;7.650;2022-08-03T09:45:39;43.30;30.70
12704;DHT22;6416;52.182;7.650;2022-08-03T09:48:27;43.40;30.40
12704;DHT22;6416;52.182;7.650;2022-08-03T09:50:54;43.60;30.10
12704;DHT22;6416;52.182;7.650;2022-08-03T09:53:21;43.80;30.90
12704;DHT22;6416;52.182;7.650;2022-08-03T09:58:23;44.30;30.10
12704;DHT22;6416;52.182;7.650;2022-08-03T10:03:18;44.80;29.50
12704;DHT22;6416;52.182;7.650;2022-08-03T10:05:44;45.00;29.60
12704;DHT22;6416;52.182;7.650;2022-08-03T10:08:14;45.20;29.40
12704;DHT22;6416;52.182;7.650;2022-08-03T10:10:45;45.40;29.00
12704;DHT22;6416;52.182;7.650;2022-08-03T10:13:12;45.50;28.60
12704;DHT22;6416;52.182;7.650;2022-08-03T10:15:39;45.80;28.50
12704;DHT22;6416;52.182;7.650;2022-08-03T10:18:04;46.00;28.20
12704;DHT22;6416;52.182;7.650;2022-08-03T10:20:31;46.20;27.90
12704;DHT22;6416;52.182;7.650;2022-08-03T10:22:57;46.30;27.60
12704;DHT22;6416;52.182;7.650;2022-08-03T10:25:25;46.20;27.30
12704;DHT22;6416;52.182;7.650;2022-08-03T10:27:55;46.00;26.90
12704;DHT22;6416;52.182;7.650;2022-08-03T10:30:23;45.70;26.70
12704;DHT22;6416;52.182;7.650;2022-08-03T10:32:54;45.40;26.70
12704;DHT22;6416;52.182;7.650;2022-08-03T10:35:20;45.20;26.90
12704;DHT22;6416;52.182;7.650;2022-08-03T10:38:11;45.10;27.60
12704;DHT22;6416;52.182;7.650;2022-08-03T10:40:39;45.10;28.20
12704;DHT22;6416;52.182;7.650;2022-08-03T10:43:12;45.30;28.40
12704;DHT22;6416;52.182;7.650;2022-08-03T10:45:41;45.60;28.30
12704;DHT22;6416;52.182;7.650;2022-08-03T10:48:08;45.90;28.10
12704;DHT22;6416;52.182;7.650;2022-08-03T10:50:34;46.30;27.80
12704;DHT22;6416;52.182;7.650;2022-08-03T10:53:01;46.50;27.40
12704;DHT22;6416;52.182;7.650;2022-08-03T10:55:42;46.60;26.90
12704;DHT22;6416;52.182;7.650;2022-08-03T10:58:07;46.70;26.20
12704;DHT22;6416;52.182;7.650;2022-08-03T11:00:47;46.90;27.00
12704;DHT22;6416;52.182;7.650;2022-08-03T11:03:13;47.30;26.70
12704;DHT22;6416;52.182;7.650;2022-08-03T11:05:43;47.60;27.00
12704;DHT22;6416;52.182;7.650;2022-08-03T11:08:29;48.00;26.50
12704;DHT22;6416;52.182;7.650;2022-08-03T11:11:23;48.30;26.20
12704;DHT22;6416;52.182;7.650;2022-08-03T11:14:08;48.50;25.90
12704;DHT22;6416;52.182;7.650;2022-08-03T11:19:06;49.00;25.20
12704;DHT22;6416;52.182;7.650;2022-08-03T11:32:49;49.30;24.60
12704;DHT22;6416;52.182;7.650;2022-08-03T11:40:49;49.80;23.70
12704;DHT22;6416;52.182;7.650;2022-08-03T11:46:11;50.00;23.50
12704;DHT22;6416;52.182;7.650;2022-08-03T11:48:41;50.10;23.50
12704;DHT22;6416;52.182;7.650;2022-08-03T11:51:24;50.10;23.20
12704;DHT22;6416;52.182;7.650;2022-08-03T11:53:58;50.30;23.20
12704;DHT22;6416;52.182;7.650;2022-08-03T11:56:24;50.40;23.40
12704;DHT22;6416;52.182;7.650;2022-08-03T11:58:55;50.40;23.20
12704;DHT22;6416;52.182;7.650;2022-08-03T12:01:22;50.50;23.20
12704;DHT22;6416;52.182;7.650;2022-08-03T12:03:48;50.60;22.90
12704;DHT22;6416;52.182;7.650;2022-08-03T12:06:15;50.70;23.00
12704;DHT22;6416;52.182;7.650;2022-08-03T12:08:42;50.80;22.70
12704;DHT22;6416;52.182;7.650;2022-08-03T12:11:10;51.00;22.60
12704;DHT22;6416;52.182;7.650;2022-08-03T12:13:45;51.10;22.50
12704;DHT22;6416;52.182;7.650;2022-08-03T12:16:20;51.20;22.00
12704;DHT22;6416;52.182;7.650;2022-08-03T12:19:03;51.30;21.90
12704;DHT22;6416;52.182;7.650;2022-08-03T12:21:29;51.50;21.80
12704;DHT22;6416;52.182;7.650;2022-08-03T12:23:59;51.50;22.10
12704;DHT22;6416;52.182;7.650;2022-08-03T12:26:26;51.40;21.00
12704;DHT22;6416;52.182;7.650;2022-08-03T12:28:52;51.20;20.90
12704;DHT22;6416;52.182;7.650;2022-08-03T12:31:17;51.00;20.60
12704;DHT22;6416;52.182;7.650;2022-08-03T12:34:03;50.70;20.60
12704;DHT22;6416;52.182;7.650;2022-08-03T12:36:31;50.50;20.50
12704;DHT22;6416;52.182;7.650;2022-08-03T12:39:00;50.30;21.20
12704;DHT22;6416;52.182;7.650;2022-08-03T12:41:37;50.20;21.60
12704;DHT22;6416;52.182;7.650;2022-08-03T12:44:06;50.10;21.50
12704;DHT22;6416;52.182;7.650;2022-08-03T12:46:34;49.90;21.20
12704;DHT22;6416;52.182;7.650;2022-08-03T12:49:11;49.90;21.30
12704;DHT22;6416;52.182;7.650;2022-08-03T12:51:55;49.80;21.50
12704;DHT22;6416;52.182;7.650;2022-08-03T12:54:26;49.70;21.30
12704;DHT22;6416;52.182;7.650;2022-08-03T12:57:04;49.70;21.40
12704;DHT22;6416;52.182;7.650;2022-08-03T12:59:32;49.70;21.10
12704;DHT22;6416;52.182;7.650;2022-08-03T13:01:58;49.70;21.20
12704;DHT22;6416;52.182;7.650;2022-08-03T13:04:25;49.60;21.10
12704;DHT22;6416;52.182;7.650;2022-08-03T13:07:02;49.40;20.90
12704;DHT22;6416;52.182;7.650;2022-08-03T13:09:29;49.30;21.60
12704;DHT22;6416;52.182;7.650;2022-08-03T13:12:15;49.20;21.40
12704;DHT22;6416;52.182;7.650;2022-08-03T13:14:42;49.10;21.60
12704;DHT22;6416;52.182;7.650;2022-08-03T13:17:08;48.90;21.20
12704;DHT22;6416;52.182;7.650;2022-08-03T13:19:35;48.60;21.00
12704;DHT22;6416;52.182;7.650;2022-08-03T13:22:21;48.20;21.10
12704;DHT22;6416;52.182;7.650;2022-08-03T13:24:49;47.70;20.90
12704;DHT22;6416;52.182;7.650;2022-08-03T13:27:15;47.10;20.70
12704;DHT22;6416;52.182;7.650;2022-08-03T13:29:41;46.60;21.00
12704;DHT22;6416;52.182;7.650;2022-08-03T13:32:07;46.00;21.30
12704;DHT22;6416;52.182;7.650;2022-08-03T13:34:32;45.50;21.70
12704;DHT22;6416;52.182;7.650;2022-08-03T13:36:58;45.10;22.20
12704;DHT22;6416;52.182;7.650;2022-08-03T13:39:23;44.60;22.50
12704;DHT22;6416;52.182;7.650;2022-08-03T13:41:49;44.30;22.80
12704;DHT22;6416;52.182;7.650;2022-08-03T13:44:15;44.00;22.80
12704;DHT22;6416;52.182;7.650;2022-08-03T13:46:40;43.80;22.60
12704;DHT22;6416;52.182;7.650;2022-08-03T13:49:06;43.50;22.90
12704;DHT22;6416;52.182;7.650;2022-08-03T13:51:32;43.20;23.20
12704;DHT22;6416;52.182;7.650;2022-08-03T13:53:58;43.00;23.30
12704;DHT22;6416;52.182;7.650;2022-08-03T13:56:25;42.80;23.50
12704;DHT22;6416;52.182;7.650;2022-08-03T13:58:50;42.60;23.70
12704;DHT22;6416;52.182;7.650;2022-08-03T14:01:16;42.40;24.00
12704;DHT22;6416;52.182;7.650;2022-08-03T14:03:41;42.30;24.00
12704;DHT22;6416;52.182;7.650;2022-08-03T14:06:07;42.30;24.10
12704;DHT22;6416;52.182;7.650;2022-08-03T14:08:32;42.10;24.10
12704;DHT22;6416;52.182;7.650;2022-08-03T14:10:58;41.90;24.30
12704;DHT22;6416;52.182;7.650;2022-08-03T14:13:23;41.90;24.60
12704;DHT22;6416;52.182;7.650;2022-08-03T14:15:49;41.80;25.00
12704;DHT22;6416;52.182;7.650;2022-08-03T14:18:14;41.70;25.20
12704;DHT22;6416;52.182;7.650;2022-08-03T14:20:40;41.70;25.20
12704;DHT22;6416;52.182;7.650;2022-08-03T14:23:06;41.60;25.10
12704;DHT22;6416;52.182;7.650;2022-08-03T14:25:31;41.60;25.30
12704;DHT22;6416;52.182;7.650;2022-08-03T14:27:57;41.60;25.30
12704;DHT22;6416;52.182;7.650;2022-08-03T14:30:22;41.60;25.50
12704;DHT22;6416;52.182;7.650;2022-08-03T14:32:48;41.50;25.60
12704;DHT22;6416;52.182;7.650;2022-08-03T14:35:13;41.40;25.60
12704;DHT22;6416;52.182;7.650;2022-08-03T14:37:39;41.40;25.30
12704;DHT22;6416;52.182;7.650;2022-08-03T14:40:05;41.40;25.30
12704;DHT22;6416;52.182;7.650;2022-08-03T14:42:30;41.30;25.30
12704;DHT22;6416;52.182;7.650;2022-08-03T14:44:56;41.20;25.30
12704;DHT22;6416;52.182;7.650;2022-08-03T14:47:21;41.10;25.30
12704;DHT22;6416;52.182;7.650;2022-08-03T14:49:47;41.00;25.20
12704;DHT22;6416;52.182;7.650;2022-08-03T14:52:12;40.90;25.30
12704;DHT22;6416;52.182;7.650;2022-08-03T14:54:38;40.80;25.30
12704;DHT22;6416;52.182;7.650;2022-08-03T14:57:03;40.70;25.50
12704;DHT22;6416;52.182;7.650;2022-08-03T14:59:29;40.60;25.50
12704;DHT22;6416;52.182;7.650;2022-08-03T15:01:54;40.50;25.60
12704;DHT22;6416;52.182;7.650;2022-08-03T15:04:20;40.40;25.60
12704;DHT22;6416;52.182;7.650;2022-08-03T15:06:45;40.30;25.60
12704;DHT22;6416;52.182;7.650;2022-08-03T15:09:11;40.20;25.90
12704;DHT22;6416;52.182;7.650;2022-08-03T15:11:36;40.10;26.10
12704;DHT22;6416;52.182;7.650;2022-08-03T15:14:02;39.90;25.90
12704;DHT22;6416;52.182;7.650;2022-08-03T15:16:27;39.80;26.00
12704;DHT22;6416;52.182;7.650;2022-08-03T15:18:53;39.70;26.10
12704;DHT22;6416;52.182;7.650;2022-08-03T15:21:18;39.60;26.30
12704;DHT22;6416;52.182;7.650;2022-08-03T15:23:44;39.50;26.30
12704;DHT22;6416;52.182;7.650;2022-08-03T15:26:09;39.40;26.20
12704;DHT22;6416;52.182;7.650;2022-08-03T15:28:35;39.30;26.20
12704;DHT22;6416;52.182;7.650;2022-08-03T15:31:00;39.20;26.20
12704;DHT22;6416;52.182;7.650;2022-08-03T15:33:26;39.20;26.50
12704;DHT22;6416;52.182;7.650;2022-08-03T15:35:52;39.00;27.00
12704;DHT22;6416;52.182;7.650;2022-08-03T15:38:18;39.00;26.50
12704;DHT22;6416;52.182;7.650;2022-08-03T15:40:43;38.80;26.50
12704;DHT22;6416;52.182;7.650;2022-08-03T15:43:09;38.70;26.80
12704;DHT22;6416;52.182;7.650;2022-08-03T15:45:35;38.60;26.90
12704;DHT22;6416;52.182;7.650;2022-08-03T15:48:01;38.50;27.00
12704;DHT22;6416;52.182;7.650;2022-08-03T15:50:26;38.40;27.20
12704;DHT22;6416;52.182;7.650;2022-08-03T15:52:54;38.30;27.20
12704;DHT22;6416;52.182;7.650;2022-08-03T15:55:19;38.30;27.90
12704;DHT22;6416;52.182;7.650;2022-08-03T15:57:45;38.20;27.40
12704;DHT22;6416;52.182;7.650;2022-08-03T16:00:12;38.10;27.60
12704;DHT22;6416;52.182;7.650;2022-08-03T16:02:37;38.00;27.50
12704;DHT22;6416;52.182;7.650;2022-08-03T16:05:03;38.00;27.60
12704;DHT22;6416;52.182;7.650;2022-08-03T16:07:29;37.90;27.80
12704;DHT22;6416;52.182;7.650;2022-08-03T16:09:54;37.80;27.80
12704;DHT22;6416;52.182;7.650;2022-08-03T16:12:20;37.80;28.10
12704;DHT22;6416;52.182;7.650;2022-08-03T16:14:45;37.70;28.00
12704;DHT22;6416;52.182;7.650;2022-08-03T16:17:11;37.70;28.30
12704;DHT22;6416;52.182;7.650;2022-08-03T16:19:36;37.60;28.20
12704;DHT22;6416;52.182;7.650;2022-08-03T16:22:02;37.60;28.50
12704;DHT22;6416;52.182;7.650;2022-08-03T16:24:27;37.50;28.30
12704;DHT22;6416;52.182;7.650;2022-08-03T16:26:53;37.50;28.40
12704;DHT22;6416;52.182;7.650;2022-08-03T16:29:18;37.50;28.60